sensor_id;sensor_type;location;lat;lon;timestamp;temperature;humidity
1417;DHT22;703;51.162;13.574;2022-12-05T00:03:55;3.10;99.90
1417;DHT22;703;51.162;13.574;2022-12-05T00:06:22;3.10;99.90
1417;DHT22;703;51.162;13.574;2022-12-05T00:08:48;3.00;99.90
1417;DHT22;703;51.162;13.574;2022-12-05T00:11:16;3.00;99.90
1417;DHT22;703;51.162;13.574;2022-12-05T00:13:42;3.00;99.90
1417;DHT22;703;51.162;13.574;2022-12-05T00:40:30;2.90;99.90
1417;DHT22;703;51.162;13.574;2022-12-05T00:42:55;2.90;99.90
1417;DHT22;703;51.162;13.574;2022-12-05T00:45:21;2.90;99.90
1417;DHT22;703;51.162;13.574;2022-12-05T01:19:29;3.00;99.90
1417;DHT22;703;51.162;13.574;2022-12-05T01:21:56;3.00;99.90
1417;DHT22;703;51.162;13.574;2022-12-05T01:24:22;3.00;99.90
1417;DHT22;703;51.162;13.574;2022-12-05T01:26:48;3.00;99.90
1417;DHT22;703;51.162;13.574;2022-12-05T01:29:18;3.00;99.90
1417;DHT22;703;51.162;13.574;2022-12-05T01:31:44;3.00;99.90
1417;DHT22;703;51.162;13.574;2022-12-05T01:34:12;3.00;99.90
1417;DHT22;703;51.162;13.574;2022-12-05T01:36:38;3.00;99.90
1417;DHT22;703;51.162;13.574;2022-12-05T01:41:33;3.00;99.90
1417;DHT22;703;51.162;13.574;2022-12-05T01:44:06;3.00;99.90
1417;DHT22;703;51.162;13.574;2022-12-05T01:46:35;3.00;99.90
1417;DHT22;703;51.162;13.574;2022-12-05T01:49:05;3.10;99.90
1417;DHT22;703;51.162;13.574;2022-12-05T01:51:32;3.10;99.90
1417;DHT22;703;51.162;13.574;2022-12-05T01:53:59;3.10;99.90
1417;DHT22;703;51.162;13.574;2022-12-05T01:56:25;3.10;99.90
1417;DHT22;703;51.162;13.574;2022-12-05T01:58:51;3.10;99.90
1417;DHT22;703;51.162;13.574;2022-12-05T02:01:18;3.20;99.90
1417;DHT22;703;51.162;13.574;2022-12-05T02:03:47;3.20;99.90
1417;DHT22;703;51.162;13.574;2022-12-05T02:06:15;3.20;99.90
1417;DHT22;703;51.162;13.574;2022-12-05T02:08:41;3.30;99.90
1417;DHT22;703;51.162;13.574;2022-12-05T02:11:08;3.30;99.90
1417;DHT22;703;51.162;13.574;2022-12-05T02:13:46;3.30;99.90
1417;DHT22;703;51.162;13.574;2022-12-05T02:16:44;3.30;99.90
1417;DHT22;703;51.162;13.574;2022-12-05T02:33:22;3.30;99.90
1417;DHT22;703;51.162;13.574;2022-12-05T02:43:59;3.30;99.90
1417;DHT22;703;51.162;13.574;2022-12-05T02:46:29;3.30;99.90
1417;DHT22;703;51.162;13.574;2022-12-05T02:49:00;3.30;99.90
1417;DHT22;703;51.162;13.574;2022-12-05T02:51:31;3.40;99.90
1417;DHT22;703;51.162;13.574;2022-12-05T02:54:01;3.40;99.90
1417;DHT22;703;51.162;13.574;2022-12-05T02:56:29;3.40;99.90
1417;DHT22;703;51.162;13.574;2022-12-05T02:58:55;3.40;99.90
1417;DHT22;703;51.162;13.574;2022-12-05T03:01:24;3.40;99.90
1417;DHT22;703;51.162;13.574;2022-12-05T03:03:52;3.50;99.90
1417;DHT22;703;51.162;13.574;2022-12-05T03:06:23;3.40;99.90
1417;DHT22;703;51.162;13.574;2022-12-05T03:08:59;3.40;99.90
1417;DHT22;703;51.162;13.574;2022-12-05T03:11:32;3.40;99.90
1417;DHT22;703;51.162;13.574;2022-12-05T03:14:02;3.30;99.90
1417;DHT22;703;51.162;13.574;2022-12-05T03:19:00;3.40;99.90
1417;DHT22;703;51.162;13.574;2022-12-05T03:21:36;3.40;99.90
1417;DHT22;703;51.162;13.574;2022-12-05T03:24:09;3.40;99.90
1417;DHT22;703;51.162;13.574;2022-12-05T03:26:51;3.50;99.90
1417;DHT22;703;51.162;13.574;2022-12-05T03:49:04;3.70;99.90
1417;DHT22;703;51.162;13.574;2022-12-05T03:51:40;3.60;99.90
1417;DHT22;703;51.162;13.574;2022-12-05T03:56:53;3.60;99.90
1417;DHT22;703;51.162;13.574;2022-12-05T03:59:34;3.60;99.90
1417;DHT22;703;51.162;13.574;2022-12-05T04:02:09;3.60;99.90
1417;DHT22;703;51.162;13.574;2022-12-05T04:04:53;3.60;99.90
1417;DHT22;703;51.162;13.574;2022-12-05T04:07:21;3.60;99.90
1417;DHT22;703;51.162;13.574;2022-12-05T04:10:00;3.60;99.90
1417;DHT22;703;51.162;13.574;2022-12-05T04:12:29;3.60;99.90
1417;DHT22;703;51.162;13.574;2022-12-05T04:15:02;3.60;99.90
1417;DHT22;703;51.162;13.574;2022-12-05T04:20:16;3.60;99.90
1417;DHT22;703;51.162;13.574;2022-12-05T04:23:02;3.60;99.90
1417;DHT22;703;51.162;13.574;2022-12-05T04:25:36;3.60;99.90
1417;DHT22;703;51.162;13.574;2022-12-05T04:44:29;3.70;99.90
1417;DHT22;703;51.162;13.574;2022-12-05T04:47:00;3.70;99.90
1417;DHT22;703;51.162;13.574;2022-12-05T04:49:28;3.70;99.90
1417;DHT22;703;51.162;13.574;2022-12-05T04:51:59;3.70;99.90
1417;DHT22;703;51.162;13.574;2022-12-05T04:54:52;3.70;99.90
1417;DHT22;703;51.162;13.574;2022-12-05T04:57:24;3.70;99.90
1417;DHT22;703;51.162;13.574;2022-12-05T04:59:52;3.80;99.90
1417;DHT22;703;51.162;13.574;2022-12-05T05:02:23;3.90;99.90
1417;DHT22;703;51.162;13.574;2022-12-05T05:04:52;3.80;99.90
1417;DHT22;703;51.162;13.574;2022-12-05T05:07:19;3.80;99.90
1417;DHT22;703;51.162;13.574;2022-12-05T05:19:29;3.90;99.90
1417;DHT22;703;51.162;13.574;2022-12-05T05:24:21;3.80;99.90
1417;DHT22;703;51.162;13.574;2022-12-05T05:26:48;4.00;99.90
1417;DHT22;703;51.162;13.574;2022-12-05T05:29:14;3.90;99.90
1417;DHT22;703;51.162;13.574;2022-12-05T05:36:33;3.90;99.90
1417;DHT22;703;51.162;13.574;2022-12-05T05:39:01;4.00;99.90
1417;DHT22;703;51.162;13.574;2022-12-05T05:41:30;4.00;99.90
1417;DHT22;703;51.162;13.574;2022-12-05T05:43:56;3.90;99.90
1417;DHT22;703;51.162;13.574;2022-12-05T05:46:24;3.90;99.90
1417;DHT22;703;51.162;13.574;2022-12-05T05:48:50;3.90;99.90
1417;DHT22;703;51.162;13.574;2022-12-05T05:51:17;3.90;99.90
1417;DHT22;703;51.162;13.574;2022-12-05T05:53:44;3.90;99.90
1417;DHT22;703;51.162;13.574;2022-12-05T05:56:12;4.00;99.90
1417;DHT22;703;51.162;13.574;2022-12-05T05:58:38;4.00;99.90
1417;DHT22;703;51.162;13.574;2022-12-05T06:01:09;4.00;99.90
1417;DHT22;703;51.162;13.574;2022-12-05T06:06:04;4.00;99.90
1417;DHT22;703;51.162;13.574;2022-12-05T06:08:32;4.00;99.90
1417;DHT22;703;51.162;13.574;2022-12-05T06:10:58;3.80;99.90
1417;DHT22;703;51.162;13.574;2022-12-05T06:23:07;3.60;99.90
1417;DHT22;703;51.162;13.574;2022-12-05T06:37:44;3.60;99.90
1417;DHT22;703;51.162;13.574;2022-12-05T06:40:11;3.60;99.90
1417;DHT22;703;51.162;13.574;2022-12-05T06:42:37;3.60;99.90
1417;DHT22;703;51.162;13.574;2022-12-05T06:45:03;3.60;99.90
1417;DHT22;703;51.162;13.574;2022-12-05T06:47:29;3.60;99.90
1417;DHT22;703;51.162;13.574;2022-12-05T06:52:21;3.60;99.90
1417;DHT22;703;51.162;13.574;2022-12-05T07:02:05;3.60;99.90
1417;DHT22;703;51.162;13.574;2022-12-05T07:04:33;3.70;99.90
1417;DHT22;703;51.162;13.574;2022-12-05T07:06:59;3.60;99.90
1417;DHT22;703;51.162;13.574;2022-12-05T07:09:27;3.60;99.90
1417;DHT22;703;51.162;13.574;2022-12-05T07:17:19;3.70;99.90
1417;DHT22;703;51.162;13.574;2022-12-05T07:19:49;3.70;99.90
1417;DHT22;703;51.162;13.574;2022-12-05T07:22:20;3.80;99.90
1417;DHT22;703;51.162;13.574;2022-12-05T07:24:46;3.80;99.90
1417;DHT22;703;51.162;13.574;2022-12-05T07:27:13;3.80;99.90
1417;DHT22;703;51.162;13.574;2022-12-05T07:29:39;3.90;99.90
1417;DHT22;703;51.162;13.574;2022-12-05T07:44:15;4.20;99.90
1417;DHT22;703;51.162;13.574;2022-12-05T07:46:41;4.10;99.90
1417;DHT22;703;51.162;13.574;2022-12-05T07:49:07;4.10;99.90
1417;DHT22;703;51.162;13.574;2022-12-05T07:54:00;4.00;99.90
1417;DHT22;703;51.162;13.574;2022-12-05T07:56:26;4.00;99.90
1417;DHT22;703;51.162;13.574;2022-12-05T07:58:54;4.00;99.90
1417;DHT22;703;51.162;13.574;2022-12-05T08:01:26;4.00;99.90
1417;DHT22;703;51.162;13.574;2022-12-05T08:03:54;3.90;99.90
1417;DHT22;703;51.162;13.574;2022-12-05T08:06:22;4.10;99.90
1417;DHT22;703;51.162;13.574;2022-12-05T08:08:49;4.00;99.90
1417;DHT22;703;51.162;13.574;2022-12-05T08:11:27;4.00;99.90
1417;DHT22;703;51.162;13.574;2022-12-05T08:13:53;4.00;99.90
1417;DHT22;703;51.162;13.574;2022-12-05T08:16:22;4.00;99.90
1417;DHT22;703;51.162;13.574;2022-12-05T08:21:16;3.90;99.90
1417;DHT22;703;51.162;13.574;2022-12-05T08:23:46;3.90;99.90
1417;DHT22;703;51.162;13.574;2022-12-05T08:28:42;3.90;99.90
1417;DHT22;703;51.162;13.574;2022-12-05T08:31:17;3.90;99.90
1417;DHT22;703;51.162;13.574;2022-12-05T08:33:43;3.90;99.90
1417;DHT22;703;51.162;13.574;2022-12-05T08:36:14;4.00;99.90
1417;DHT22;703;51.162;13.574;2022-12-05T08:38:40;4.00;99.90
1417;DHT22;703;51.162;13.574;2022-12-05T08:41:08;4.10;99.90
1417;DHT22;703;51.162;13.574;2022-12-05T08:46:01;4.20;99.90
1417;DHT22;703;51.162;13.574;2022-12-05T08:48:28;4.20;99.90
1417;DHT22;703;51.162;13.574;2022-12-05T08:50:54;4.20;99.90
1417;DHT22;703;51.162;13.574;2022-12-05T08:53:20;4.30;99.90
1417;DHT22;703;51.162;13.574;2022-12-05T08:55:46;4.30;99.90
1417;DHT22;703;51.162;13.574;2022-12-05T09:00:39;4.50;99.90
1417;DHT22;703;51.162;13.574;2022-12-05T09:03:06;4.50;99.90
1417;DHT22;703;51.162;13.574;2022-12-05T09:05:31;4.60;99.90
1417;DHT22;703;51.162;13.574;2022-12-05T09:10:25;4.60;99.90
1417;DHT22;703;51.162;13.574;2022-12-05T09:12:51;4.70;99.90
1417;DHT22;703;51.162;13.574;2022-12-05T09:15:16;4.60;99.90
1417;DHT22;703;51.162;13.574;2022-12-05T09:17:42;4.60;99.90
1417;DHT22;703;51.162;13.574;2022-12-05T09:20:08;4.60;99.90
1417;DHT22;703;51.162;13.574;2022-12-05T09:22:36;4.70;99.90
1417;DHT22;703;51.162;13.574;2022-12-05T09:27:28;4.70;99.90
1417;DHT22;703;51.162;13.574;2022-12-05T09:45:06;4.80;99.90
1417;DHT22;703;51.162;13.574;2022-12-05T09:50:22;4.80;99.90
1417;DHT22;703;51.162;13.574;2022-12-05T09:55:17;4.80;99.90
1417;DHT22;703;51.162;13.574;2022-12-05T09:57:53;4.90;99.90
1417;DHT22;703;51.162;13.574;2022-12-05T10:02:56;5.00;99.90
1417;DHT22;703;51.162;13.574;2022-12-05T10:06:01;5.00;99.90
1417;DHT22;703;51.162;13.574;2022-12-05T10:17:25;4.90;99.90
1417;DHT22;703;51.162;13.574;2022-12-05T10:19:56;5.00;99.90
1417;DHT22;703;51.162;13.574;2022-12-05T10:22:29;5.00;99.90
1417;DHT22;703;51.162;13.574;2022-12-05T10:25:02;5.00;99.90
1417;DHT22;703;51.162;13.574;2022-12-05T10:27:34;5.00;99.90
1417;DHT22;703;51.162;13.574;2022-12-05T10:32:52;5.00;99.90
1417;DHT22;703;51.162;13.574;2022-12-05T10:35:23;5.00;99.90
1417;DHT22;703;51.162;13.574;2022-12-05T10:37:51;5.10;99.90
1417;DHT22;703;51.162;13.574;2022-12-05T10:40:18;5.10;99.90
1417;DHT22;703;51.162;13.574;2022-12-05T10:42:44;5.20;99.90
1417;DHT22;703;51.162;13.574;2022-12-05T10:45:21;5.20;99.90
1417;DHT22;703;51.162;13.574;2022-12-05T10:47:48;5.30;99.90
1417;DHT22;703;51.162;13.574;2022-12-05T10:50:31;5.30;99.90
1417;DHT22;703;51.162;13.574;2022-12-05T10:52:59;5.30;99.90
1417;DHT22;703;51.162;13.574;2022-12-05T10:55:39;5.40;99.90
1417;DHT22;703;51.162;13.574;2022-12-05T11:00:41;5.40;99.90
1417;DHT22;703;51.162;13.574;2022-12-05T11:03:29;5.40;99.90
1417;DHT22;703;51.162;13.574;2022-12-05T11:06:01;5.40;99.90
1417;DHT22;703;51.162;13.574;2022-12-05T11:08:29;5.50;99.90
1417;DHT22;703;51.162;13.574;2022-12-05T11:11:29;5.50;99.90
1417;DHT22;703;51.162;13.574;2022-12-05T11:13:57;5.50;99.90
1417;DHT22;703;51.162;13.574;2022-12-05T11:16:29;5.50;99.90
1417;DHT22;703;51.162;13.574;2022-12-05T11:23:47;5.60;99.90
1417;DHT22;703;51.162;13.574;2022-12-05T11:26:34;5.60;99.90
1417;DHT22;703;51.162;13.574;2022-12-05T11:29:02;5.70;99.90
1417;DHT22;703;51.162;13.574;2022-12-05T11:31:29;5.80;99.90
1417;DHT22;703;51.162;13.574;2022-12-05T11:36:49;5.90;99.90
1417;DHT22;703;51.162;13.574;2022-12-05T11:39:17;5.90;99.90
1417;DHT22;703;51.162;13.574;2022-12-05T12:08:07;6.00;99.90
1417;DHT22;703;51.162;13.574;2022-12-05T12:16:14;6.10;99.90
1417;DHT22;703;51.162;13.574;2022-12-05T12:19:04;6.10;99.90
1417;DHT22;703;51.162;13.574;2022-12-05T12:35:30;6.20;99.90
1417;DHT22;703;51.162;13.574;2022-12-05T12:38:10;6.20;99.90
1417;DHT22;703;51.162;13.574;2022-12-05T12:40:54;6.20;99.90
1417;DHT22;703;51.162;13.574;2022-12-05T12:51:31;6.10;99.90
1417;DHT22;703;51.162;13.574;2022-12-05T12:57:03;6.10;99.90
1417;DHT22;703;51.162;13.574;2022-12-05T13:02:42;6.10;99.90
1417;DHT22;703;51.162;13.574;2022-12-05T13:05:32;6.10;99.90
1417;DHT22;703;51.162;13.574;2022-12-05T13:08:05;6.10;99.90
1417;DHT22;703;51.162;13.574;2022-12-05T13:10:42;6.00;99.90
1417;DHT22;703;51.162;13.574;2022-12-05T13:13:14;5.90;99.90
1417;DHT22;703;51.162;13.574;2022-12-05T13:15:46;5.90;99.90
1417;DHT22;703;51.162;13.574;2022-12-05T13:18:22;5.70;99.90
1417;DHT22;703;51.162;13.574;2022-12-05T13:20:50;5.60;99.90
1417;DHT22;703;51.162;13.574;2022-12-05T13:23:20;5.70;99.90
1417;DHT22;703;51.162;13.574;2022-12-05T13:25:47;5.60;99.90
1417;DHT22;703;51.162;13.574;2022-12-05T13:28:26;5.60;99.90
1417;DHT22;703;51.162;13.574;2022-12-05T13:30:53;5.60;99.90
1417;DHT22;703;51.162;13.574;2022-12-05T13:36:08;5.60;99.90
1417;DHT22;703;51.162;13.574;2022-12-05T13:39:05;5.60;99.90
1417;DHT22;703;51.162;13.574;2022-12-05T13:41:53;5.60;99.90
1417;DHT22;703;51.162;13.574;2022-12-05T13:44:41;5.60;99.90
1417;DHT22;703;51.162;13.574;2022-12-05T13:47:25;5.60;99.90
1417;DHT22;703;51.162;13.574;2022-12-05T13:50:08;5.60;99.90
1417;DHT22;703;51.162;13.574;2022-12-05T13:52:41;5.60;99.90
1417;DHT22;703;51.162;13.574;2022-12-05T13:55:28;5.60;99.90
1417;DHT22;703;51.162;13.574;2022-12-05T13:57:56;5.60;99.90
1417;DHT22;703;51.162;13.574;2022-12-05T14:02:58;5.60;99.90
1417;DHT22;703;51.162;13.574;2022-12-05T14:05:38;5.60;99.90
1417;DHT22;703;51.162;13.574;2022-12-05T14:11:08;5.60;99.90
1417;DHT22;703;51.162;13.574;2022-12-05T14:13:40;5.60;99.90
1417;DHT22;703;51.162;13.574;2022-12-05T14:18:57;5.60;99.90
1417;DHT22;703;51.162;13.574;2022-12-05T14:33:21;5.50;99.90
1417;DHT22;703;51.162;13.574;2022-12-05T14:35:49;5.50;99.90
1417;DHT22;703;51.162;13.574;2022-12-05T14:38:33;5.40;99.90
1417;DHT22;703;51.162;13.574;2022-12-05T14:41:15;5.50;99.90
1417;DHT22;703;51.162;13.574;2022-12-05T14:43:54;5.40;99.90
1417;DHT22;703;51.162;13.574;2022-12-05T14:46:30;5.40;99.90
1417;DHT22;703;51.162;13.574;2022-12-05T14:49:31;5.40;99.90
1417;DHT22;703;51.162;13.574;2022-12-05T14:51:53;5.40;99.90
1417;DHT22;703;51.162;13.574;2022-12-05T14:54:20;5.40;99.90
1417;DHT22;703;51.162;13.574;2022-12-05T14:56:50;5.40;99.90
1417;DHT22;703;51.162;13.574;2022-12-05T15:01:54;5.30;99.90
1417;DHT22;703;51.162;13.574;2022-12-05T15:04:41;5.30;99.90
1417;DHT22;703;51.162;13.574;2022-12-05T15:07:11;5.30;99.90
1417;DHT22;703;51.162;13.574;2022-12-05T15:12:39;5.20;99.90
1417;DHT22;703;51.162;13.574;2022-12-05T15:21:15;5.10;99.90
1417;DHT22;703;51.162;13.574;2022-12-05T15:23:47;5.10;99.90
1417;DHT22;703;51.162;13.574;2022-12-05T15:29:07;5.00;99.90
1417;DHT22;703;51.162;13.574;2022-12-05T15:31:57;5.00;99.90
1417;DHT22;703;51.162;13.574;2022-12-05T15:34:46;4.90;99.90
1417;DHT22;703;51.162;13.574;2022-12-05T15:40:10;4.90;99.90
1417;DHT22;703;51.162;13.574;2022-12-05T15:42:45;4.90;99.90
1417;DHT22;703;51.162;13.574;2022-12-05T15:47:38;4.80;99.90
1417;DHT22;703;51.162;13.574;2022-12-05T15:50:05;4.90;99.90
1417;DHT22;703;51.162;13.574;2022-12-05T15:52:56;4.80;99.90
1417;DHT22;703;51.162;13.574;2022-12-05T15:55:37;4.80;99.90
1417;DHT22;703;51.162;13.574;2022-12-05T15:58:41;4.80;99.90
1417;DHT22;703;51.162;13.574;2022-12-05T16:01:22;4.80;99.90
1417;DHT22;703;51.162;13.574;2022-12-05T16:09:07;4.70;99.90
1417;DHT22;703;51.162;13.574;2022-12-05T16:11:34;4.70;99.90
1417;DHT22;703;51.162;13.574;2022-12-05T16:14:02;4.70;99.90
1417;DHT22;703;51.162;13.574;2022-12-05T16:16:31;4.70;99.90
1417;DHT22;703;51.162;13.574;2022-12-05T16:19:06;4.70;99.90
1417;DHT22;703;51.162;13.574;2022-12-05T16:21:41;4.70;99.90
1417;DHT22;703;51.162;13.574;2022-12-05T16:24:14;4.70;99.90
1417;DHT22;703;51.162;13.574;2022-12-05T16:26:41;4.70;99.90
1417;DHT22;703;51.162;13.574;2022-12-05T16:29:27;4.70;99.90
1417;DHT22;703;51.162;13.574;2022-12-05T16:31:55;4.60;99.90
1417;DHT22;703;51.162;13.574;2022-12-05T16:34:22;4.70;99.90
1417;DHT22;703;51.162;13.574;2022-12-05T16:36:49;4.60;99.90
1417;DHT22;703;51.162;13.574;2022-12-05T16:39:16;4.60;99.90
1417;DHT22;703;51.162;13.574;2022-12-05T16:41:43;4.60;99.90
1417;DHT22;703;51.162;13.574;2022-12-05T16:46:54;4.60;99.90
1417;DHT22;703;51.162;13.574;2022-12-05T16:56:52;4.60;99.90
1417;DHT22;703;51.162;13.574;2022-12-05T16:59:37;4.60;99.90
1417;DHT22;703;51.162;13.574;2022-12-05T17:02:06;4.70;99.90
1417;DHT22;703;51.162;13.574;2022-12-05T17:04:34;4.70;99.90
1417;DHT22;703;51.162;13.574;2022-12-05T17:12:02;4.70;99.90
1417;DHT22;703;51.162;13.574;2022-12-05T17:21:47;4.80;99.90
1417;DHT22;703;51.162;13.574;2022-12-05T17:24:15;4.70;99.90
1417;DHT22;703;51.162;13.574;2022-12-05T17:26:42;4.70;99.90
1417;DHT22;703;51.162;13.574;2022-12-05T17:29:07;4.70;99.90
1417;DHT22;703;51.162;13.574;2022-12-05T17:31:34;4.80;99.90
1417;DHT22;703;51.162;13.574;2022-12-05T17:34:01;4.70;99.90
1417;DHT22;703;51.162;13.574;2022-12-05T17:36:27;4.70;99.90
1417;DHT22;703;51.162;13.574;2022-12-05T17:41:21;4.70;99.90
1417;DHT22;703;51.162;13.574;2022-12-05T17:43:47;4.70;99.90
1417;DHT22;703;51.162;13.574;2022-12-05T17:46:18;4.70;99.90
1417;DHT22;703;51.162;13.574;2022-12-05T17:48:46;4.70;99.90
1417;DHT22;703;51.162;13.574;2022-12-05T17:51:12;4.70;99.90
1417;DHT22;703;51.162;13.574;2022-12-05T17:53:40;4.60;99.90
1417;DHT22;703;51.162;13.574;2022-12-05T17:56:06;4.70;99.90
1417;DHT22;703;51.162;13.574;2022-12-05T17:58:33;4.70;99.90
1417;DHT22;703;51.162;13.574;2022-12-05T18:00:59;4.70;99.90
1417;DHT22;703;51.162;13.574;2022-12-05T18:10:46;4.70;99.90
1417;DHT22;703;51.162;13.574;2022-12-05T18:15:39;4.60;99.90
1417;DHT22;703;51.162;13.574;2022-12-05T18:18:08;4.70;99.90
1417;DHT22;703;51.162;13.574;2022-12-05T18:20:39;4.60;99.90
1417;DHT22;703;51.162;13.574;2022-12-05T18:23:05;4.70;99.90
1417;DHT22;703;51.162;13.574;2022-12-05T18:25:31;4.60;99.90
1417;DHT22;703;51.162;13.574;2022-12-05T18:27:58;4.60;99.90
1417;DHT22;703;51.162;13.574;2022-12-05T18:32:50;4.60;99.90
1417;DHT22;703;51.162;13.574;2022-12-05T18:40:09;4.60;99.90
1417;DHT22;703;51.162;13.574;2022-12-05T18:42:35;4.60;99.90
1417;DHT22;703;51.162;13.574;2022-12-05T18:45:02;4.60;99.90
1417;DHT22;703;51.162;13.574;2022-12-05T18:47:28;4.50;99.90
1417;DHT22;703;51.162;13.574;2022-12-05T18:49:54;4.50;99.90
1417;DHT22;703;51.162;13.574;2022-12-05T18:52:19;4.50;99.90
1417;DHT22;703;51.162;13.574;2022-12-05T18:54:45;4.50;99.90
1417;DHT22;703;51.162;13.574;2022-12-05T18:57:12;4.40;99.90
1417;DHT22;703;51.162;13.574;2022-12-05T19:02:04;4.40;99.90
1417;DHT22;703;51.162;13.574;2022-12-05T19:04:30;4.40;99.90
1417;DHT22;703;51.162;13.574;2022-12-05T19:06:57;4.30;99.90
1417;DHT22;703;51.162;13.574;2022-12-05T19:09:30;4.30;99.90
1417;DHT22;703;51.162;13.574;2022-12-05T19:11:57;4.30;99.90
1417;DHT22;703;51.162;13.574;2022-12-05T19:14:24;4.30;99.90
1417;DHT22;703;51.162;13.574;2022-12-05T19:16:52;4.20;99.90
1417;DHT22;703;51.162;13.574;2022-12-05T19:19:19;4.20;99.90
1417;DHT22;703;51.162;13.574;2022-12-05T19:21:45;4.20;99.90
1417;DHT22;703;51.162;13.574;2022-12-05T19:24:14;4.20;99.90
1417;DHT22;703;51.162;13.574;2022-12-05T19:29:07;4.20;99.90
1417;DHT22;703;51.162;13.574;2022-12-05T19:34:03;4.20;99.90
1417;DHT22;703;51.162;13.574;2022-12-05T19:36:32;4.20;99.90
1417;DHT22;703;51.162;13.574;2022-12-05T19:39:09;4.10;99.90
1417;DHT22;703;51.162;13.574;2022-12-05T19:41:40;4.20;99.90
1417;DHT22;703;51.162;13.574;2022-12-05T19:44:09;4.20;99.90
1417;DHT22;703;51.162;13.574;2022-12-05T19:46:43;4.20;99.90
1417;DHT22;703;51.162;13.574;2022-12-05T19:49:13;4.10;99.90
1417;DHT22;703;51.162;13.574;2022-12-05T19:51:57;4.10;99.90
1417;DHT22;703;51.162;13.574;2022-12-05T19:54:24;4.10;99.90
1417;DHT22;703;51.162;13.574;2022-12-05T19:56:54;4.10;99.90
1417;DHT22;703;51.162;13.574;2022-12-05T20:01:51;4.10;99.90
1417;DHT22;703;51.162;13.574;2022-12-05T20:04:23;4.10;99.90
1417;DHT22;703;51.162;13.574;2022-12-05T20:06:49;4.00;99.90
1417;DHT22;703;51.162;13.574;2022-12-05T20:09:19;4.00;99.90
1417;DHT22;703;51.162;13.574;2022-12-05T20:11:47;4.00;99.90
1417;DHT22;703;51.162;13.574;2022-12-05T20:14:18;3.90;99.90
1417;DHT22;703;51.162;13.574;2022-12-05T20:19:19;3.90;99.90
1417;DHT22;703;51.162;13.574;2022-12-05T20:21:49;3.90;99.90
1417;DHT22;703;51.162;13.574;2022-12-05T20:24:15;3.90;99.90
1417;DHT22;703;51.162;13.574;2022-12-05T20:26:42;3.90;99.90
1417;DHT22;703;51.162;13.574;2022-12-05T20:31:37;3.90;99.90
1417;DHT22;703;51.162;13.574;2022-12-05T20:34:04;3.90;99.90
1417;DHT22;703;51.162;13.574;2022-12-05T20:36:32;3.90;99.90
1417;DHT22;703;51.162;13.574;2022-12-05T20:39:00;3.90;99.90
1417;DHT22;703;51.162;13.574;2022-12-05T20:41:27;4.00;99.90
1417;DHT22;703;51.162;13.574;2022-12-05T20:43:59;4.00;99.90
1417;DHT22;703;51.162;13.574;2022-12-05T20:46:27;4.00;99.90
1417;DHT22;703;51.162;13.574;2022-12-05T20:48:53;4.00;99.90
1417;DHT22;703;51.162;13.574;2022-12-05T20:51:23;4.00;99.90
1417;DHT22;703;51.162;13.574;2022-12-05T20:53:50;4.00;99.90
1417;DHT22;703;51.162;13.574;2022-12-05T20:56:18;4.00;99.90
1417;DHT22;703;51.162;13.574;2022-12-05T20:58:52;4.00;99.90
1417;DHT22;703;51.162;13.574;2022-12-05T21:01:19;4.00;99.90
1417;DHT22;703;51.162;13.574;2022-12-05T21:03:48;4.00;99.90
1417;DHT22;703;51.162;13.574;2022-12-05T21:06:16;4.00;99.90
1417;DHT22;703;51.162;13.574;2022-12-05T21:08:44;4.00;99.90
1417;DHT22;703;51.162;13.574;2022-12-05T21:11:11;4.00;99.90
1417;DHT22;703;51.162;13.574;2022-12-05T21:13:40;3.90;99.90
1417;DHT22;703;51.162;13.574;2022-12-05T21:16:09;3.90;99.90
1417;DHT22;703;51.162;13.574;2022-12-05T21:21:04;3.90;99.90
1417;DHT22;703;51.162;13.574;2022-12-05T21:26:02;3.90;99.90
1417;DHT22;703;51.162;13.574;2022-12-05T21:28:37;3.90;99.90
1417;DHT22;703;51.162;13.574;2022-12-05T21:31:37;3.90;99.90
1417;DHT22;703;51.162;13.574;2022-12-05T21:34:25;3.80;99.90
1417;DHT22;703;51.162;13.574;2022-12-05T21:36:56;3.70;99.90
1417;DHT22;703;51.162;13.574;2022-12-05T21:39:30;3.60;99.90
1417;DHT22;703;51.162;13.574;2022-12-05T21:42:06;3.70;99.90
1417;DHT22;703;51.162;13.574;2022-12-05T21:44:37;3.70;99.90
1417;DHT22;703;51.162;13.574;2022-12-05T21:47:05;3.70;99.90
1417;DHT22;703;51.162;13.574;2022-12-05T21:49:38;3.60;99.90
1417;DHT22;703;51.162;13.574;2022-12-05T21:54:40;3.60;99.90
1417;DHT22;703;51.162;13.574;2022-12-05T21:57:09;3.60;99.90
1417;DHT22;703;51.162;13.574;2022-12-05T22:04:30;3.60;99.90
1417;DHT22;703;51.162;13.574;2022-12-05T22:07:10;3.60;99.90
1417;DHT22;703;51.162;13.574;2022-12-05T22:12:11;3.60;99.90
1417;DHT22;703;51.162;13.574;2022-12-05T22:22:06;3.60;99.90
1417;DHT22;703;51.162;13.574;2022-12-05T22:29:50;0.50;99.90
1417;DHT22;703;51.162;13.574;2022-12-05T22:32:17;3.50;99.90
1417;DHT22;703;51.162;13.574;2022-12-05T22:34:46;3.50;99.90
1417;DHT22;703;51.162;13.574;2022-12-05T22:37:23;3.60;99.90
1417;DHT22;703;51.162;13.574;2022-12-05T22:42:24;3.50;99.90
1417;DHT22;703;51.162;13.574;2022-12-05T22:45:16;3.60;99.90
1417;DHT22;703;51.162;13.574;2022-12-05T22:47:49;3.50;99.90
1417;DHT22;703;51.162;13.574;2022-12-05T22:50:22;3.50;99.90
1417;DHT22;703;51.162;13.574;2022-12-05T22:53:00;3.60;99.90
1417;DHT22;703;51.162;13.574;2022-12-05T22:55:33;3.50;99.90
1417;DHT22;703;51.162;13.574;2022-12-05T23:00:35;3.60;99.90
1417;DHT22;703;51.162;13.574;2022-12-05T23:03:12;3.50;99.90
1417;DHT22;703;51.162;13.574;2022-12-05T23:05:49;3.50;99.90
1417;DHT22;703;51.162;13.574;2022-12-05T23:08:18;3.50;99.90
1417;DHT22;703;51.162;13.574;2022-12-05T23:10:47;3.60;99.90
1417;DHT22;703;51.162;13.574;2022-12-05T23:15:41;3.50;99.90
1417;DHT22;703;51.162;13.574;2022-12-05T23:18:09;3.60;99.90
1417;DHT22;703;51.162;13.574;2022-12-05T23:23:10;3.60;99.90
1417;DHT22;703;51.162;13.574;2022-12-05T23:25:37;3.50;99.90
1417;DHT22;703;51.162;13.574;2022-12-05T23:28:11;3.50;99.90
1417;DHT22;703;51.162;13.574;2022-12-05T23:30:39;3.50;99.90
1417;DHT22;703;51.162;13.574;2022-12-05T23:35:33;3.60;99.90
1417;DHT22;703;51.162;13.574;2022-12-05T23:38:05;3.50;99.90
1417;DHT22;703;51.162;13.574;2022-12-05T23:41:09;3.50;99.90
1417;DHT22;703;51.162;13.574;2022-12-05T23:46:06;3.60;99.90
1417;DHT22;703;51.162;13.574;2022-12-05T23:48:33;3.60;99.90
1417;DHT22;703;51.162;13.574;2022-12-05T23:51:04;3.60;99.90
1417;DHT22;703;51.162;13.574;2022-12-05T23:53:39;3.60;99.90
1417;DHT22;703;51.162;13.574;2022-12-05T23:56:17;3.60;99.90
1417;DHT22;703;51.162;13.574;2022-12-05T23:58:44;3.60;99.90
